createdAt,value
2018-05-11T00:01:10.412Z,11.80
2018-05-11T00:03:38.586Z,11.70
2018-05-11T00:06:06.940Z,11.70
2018-05-11T00:08:35.131Z,11.70
2018-05-11T00:11:03.335Z,11.70
2018-05-11T00:13:31.515Z,11.80
2018-05-11T00:15:59.833Z,11.80
2018-05-11T00:18:28.023Z,11.80
2018-05-11T00:20:56.191Z,11.80
2018-05-11T00:23:24.460Z,11.80
2018-05-11T00:25:52.731Z,11.80
2018-05-11T00:28:20.950Z,11.60
2018-05-11T00:30:49.118Z,11.60
2018-05-11T00:33:17.322Z,11.50
2018-05-11T00:35:45.502Z,11.60
2018-05-11T00:38:13.676Z,11.60
2018-05-11T00:40:41.820Z,11.50
2018-05-11T00:43:10.016Z,11.40
2018-05-11T00:45:39.056Z,11.50
2018-05-11T00:48:07.229Z,11.50
2018-05-11T00:50:35.371Z,11.50
2018-05-11T00:53:04.936Z,11.60
2018-05-11T00:55:51.246Z,11.60
2018-05-11T00:58:19.403Z,11.60
2018-05-11T01:00:47.551Z,11.70
2018-05-11T01:03:15.726Z,11.60
2018-05-11T01:05:44.714Z,11.50
2018-05-11T01:08:12.903Z,11.50
2018-05-11T01:10:41.054Z,11.50
2018-05-11T01:13:09.995Z,11.40
2018-05-11T01:15:39.006Z,11.40
2018-05-11T01:18:07.179Z,11.30
2018-05-11T01:20:35.338Z,11.40
2018-05-11T01:23:03.510Z,11.40
2018-05-11T01:25:32.595Z,11.40
2018-05-11T01:28:00.766Z,11.40
2018-05-11T01:30:28.923Z,11.40
2018-05-11T01:32:57.099Z,11.50
2018-05-11T01:35:26.103Z,11.50
2018-05-11T01:37:54.270Z,11.50
2018-05-11T01:40:22.419Z,11.40
2018-05-11T01:42:51.351Z,11.40
2018-05-11T01:45:19.547Z,11.40
2018-05-11T01:47:47.742Z,11.40
2018-05-11T01:50:16.680Z,11.40
2018-05-11T01:52:44.830Z,11.40
2018-05-11T01:55:13.193Z,11.50
2018-05-11T01:57:41.362Z,11.30
2018-05-11T02:00:10.325Z,11.20
2018-05-11T02:02:38.466Z,11.20
2018-05-11T02:05:06.946Z,11.10
2018-05-11T02:07:35.103Z,11.10
2018-05-11T02:10:04.035Z,11.20
2018-05-11T02:12:32.811Z,11.20
2018-05-11T02:15:01.043Z,11.30
2018-05-11T02:17:29.190Z,11.10
2018-05-11T02:19:57.379Z,11.10
2018-05-11T02:22:25.536Z,11.00
2018-05-11T02:24:54.606Z,10.80
2018-05-11T02:27:22.759Z,10.70
2018-05-11T02:29:50.934Z,10.60
2018-05-11T02:32:19.090Z,10.70
2018-05-11T02:34:47.351Z,10.70
2018-05-11T02:37:15.514Z,10.70
2018-05-11T02:39:43.687Z,10.80
2018-05-11T02:42:11.848Z,10.70
2018-05-11T02:44:40.059Z,10.60
2018-05-11T02:47:08.990Z,10.50
2018-05-11T02:49:37.188Z,10.50
2018-05-11T02:52:05.336Z,10.50
2018-05-11T02:54:33.600Z,10.50
2018-05-11T02:57:01.755Z,10.30
2018-05-11T02:59:30.686Z,10.20
2018-05-11T03:01:58.846Z,10.10
2018-05-11T03:04:27.089Z,10.10
2018-05-11T03:06:55.235Z,10.10
2018-05-11T03:09:23.422Z,10.00
2018-05-11T03:11:51.587Z,10.10
2018-05-11T03:14:19.731Z,10.10
2018-05-11T03:16:47.911Z,10.00
2018-05-11T03:19:16.059Z,9.90
2018-05-11T03:21:44.227Z,9.90
2018-05-11T03:24:12.382Z,9.70
2018-05-11T03:26:41.307Z,9.60
2018-05-11T03:29:09.450Z,9.50
2018-05-11T03:31:38.508Z,9.50
2018-05-11T03:34:06.646Z,9.40
2018-05-11T03:36:34.818Z,9.50
2018-05-11T03:39:02.963Z,9.40
2018-05-11T03:41:31.908Z,9.50
2018-05-11T03:44:00.091Z,9.40
2018-05-11T03:46:28.253Z,9.40
2018-05-11T03:48:56.399Z,9.40
2018-05-11T03:51:25.331Z,9.20
2018-05-11T03:53:53.572Z,9.20
2018-05-11T03:56:21.761Z,9.30
2018-05-11T03:58:49.907Z,9.20
2018-05-11T04:01:30.750Z,9.10
2018-05-11T04:04:11.024Z,9.00
2018-05-11T04:06:51.086Z,9.10
2018-05-11T04:09:19.995Z,9.10
2018-05-11T04:11:48.172Z,9.00
2018-05-11T04:14:16.380Z,9.10
2018-05-11T04:16:44.544Z,8.90
2018-05-11T04:19:12.694Z,8.80
2018-05-11T04:21:40.884Z,8.90
2018-05-11T04:24:09.078Z,9.00
2018-05-11T04:26:37.254Z,8.90
2018-05-11T04:29:05.403Z,8.90
2018-05-11T04:31:33.568Z,9.00
2018-05-11T04:34:01.776Z,9.00
2018-05-11T04:36:29.955Z,9.00
2018-05-11T04:38:58.103Z,9.00
2018-05-11T04:41:26.266Z,8.90
2018-05-11T04:43:55.990Z,8.90
2018-05-11T04:46:24.152Z,8.90
2018-05-11T04:48:52.294Z,9.10
2018-05-11T04:51:21.234Z,8.90
2018-05-11T04:53:50.203Z,9.10
2018-05-11T04:56:18.374Z,9.10
2018-05-11T04:58:46.590Z,9.10
2018-05-11T05:01:14.715Z,9.20
2018-05-11T05:03:42.991Z,9.30
2018-05-11T05:06:11.134Z,9.40
2018-05-11T05:08:39.303Z,9.40
2018-05-11T05:11:07.479Z,9.50
2018-05-11T05:13:37.284Z,9.50
2018-05-11T05:16:05.455Z,9.50
2018-05-11T05:18:33.624Z,9.60
2018-05-11T05:21:01.766Z,9.60
2018-05-11T05:23:29.987Z,9.70
2018-05-11T05:25:58.130Z,9.80
2018-05-11T05:28:26.315Z,10.00
2018-05-11T05:30:54.755Z,10.00
2018-05-11T05:33:23.003Z,10.30
2018-05-11T05:35:51.190Z,10.40
2018-05-11T05:38:19.370Z,10.50
2018-05-11T05:40:47.528Z,10.50
2018-05-11T05:43:15.730Z,10.60
2018-05-11T05:45:43.880Z,10.70
2018-05-11T05:48:12.811Z,10.90
2018-05-11T05:50:40.960Z,10.90
2018-05-11T05:53:10.009Z,11.20
2018-05-11T05:55:38.159Z,11.20
2018-05-11T05:58:06.331Z,11.30
2018-05-11T06:00:34.479Z,11.30
2018-05-11T06:03:02.728Z,11.50
2018-05-11T06:05:30.982Z,11.60
2018-05-11T06:07:59.145Z,11.60
2018-05-11T06:10:27.295Z,11.60
2018-05-11T06:12:56.297Z,11.90
2018-05-11T06:15:24.443Z,11.80
2018-05-11T06:17:53.415Z,12.00
2018-05-11T06:20:21.555Z,11.90
2018-05-11T06:22:49.780Z,12.10
2018-05-11T06:25:18.700Z,12.50
2018-05-11T06:27:46.843Z,12.50
2018-05-11T06:30:15.794Z,12.70
2018-05-11T06:32:44.743Z,12.90
2018-05-11T06:35:12.946Z,12.90
2018-05-11T06:37:41.092Z,13.10
2018-05-11T06:40:09.258Z,13.00
2018-05-11T06:42:37.486Z,13.00
2018-05-11T06:45:05.656Z,13.20
2018-05-11T06:47:33.931Z,13.30
2018-05-11T06:50:02.087Z,13.40
2018-05-11T06:52:31.076Z,13.70
2018-05-11T06:54:59.249Z,13.60
2018-05-11T06:57:27.399Z,13.70
2018-05-11T06:59:55.607Z,13.80
2018-05-11T07:02:24.566Z,13.80
2018-05-11T07:04:52.779Z,13.80
2018-05-11T07:07:20.973Z,14.10
2018-05-11T07:09:49.134Z,14.40
2018-05-11T07:12:18.099Z,14.80
2018-05-11T07:14:46.293Z,14.80
2018-05-11T07:17:14.466Z,15.00
2018-05-11T07:19:42.663Z,15.00
2018-05-11T07:22:10.818Z,15.20
2018-05-11T07:24:39.002Z,15.30
2018-05-11T07:27:07.163Z,15.40
2018-05-11T07:29:35.343Z,15.50
2018-05-11T07:32:03.515Z,15.50
2018-05-11T07:34:31.716Z,15.60
2018-05-11T07:36:59.889Z,15.70
2018-05-11T07:39:28.091Z,15.90
2018-05-11T07:41:57.127Z,15.80
2018-05-11T07:44:25.300Z,15.80
2018-05-11T07:46:53.524Z,15.90
2018-05-11T07:49:22.447Z,16.10
2018-05-11T07:51:51.474Z,16.30
2018-05-11T07:54:19.649Z,16.30
2018-05-11T07:56:47.827Z,16.60
2018-05-11T07:59:15.986Z,16.40
2018-05-11T08:01:44.967Z,16.70
2018-05-11T08:04:13.627Z,16.70
2018-05-11T08:06:41.834Z,17.20
2018-05-11T08:09:10.027Z,17.20
2018-05-11T08:11:39.106Z,17.20
2018-05-11T08:14:07.330Z,17.10
2018-05-11T08:16:35.483Z,17.30
2018-05-11T08:19:03.647Z,17.20
2018-05-11T08:21:32.637Z,17.20
2018-05-11T08:24:00.779Z,17.20
2018-05-11T08:26:29.090Z,17.40
2018-05-11T08:28:57.270Z,17.70
2018-05-11T08:31:26.345Z,18.00
2018-05-11T08:33:54.506Z,18.00
2018-05-11T08:36:22.706Z,17.80
2018-05-11T08:38:50.851Z,17.80
2018-05-11T08:41:19.878Z,17.60
2018-05-11T08:43:48.030Z,17.60
2018-05-11T08:46:16.207Z,17.80
2018-05-11T08:48:44.391Z,18.00
2018-05-11T08:51:13.785Z,18.10
2018-05-11T08:53:41.969Z,18.10
2018-05-11T08:56:10.131Z,18.50
2018-05-11T08:58:38.310Z,18.20
2018-05-11T09:01:07.278Z,18.10
2018-05-11T09:03:35.464Z,18.10
2018-05-11T09:06:03.635Z,18.50
2018-05-11T09:08:31.884Z,19.00
2018-05-11T09:11:00.817Z,19.50
2018-05-11T09:13:28.990Z,19.50
2018-05-11T09:15:57.151Z,19.50
2018-05-11T09:18:25.346Z,18.80
2018-05-11T09:20:54.307Z,18.70
2018-05-11T09:23:22.491Z,18.60
2018-05-11T09:25:50.649Z,19.00
2018-05-11T09:28:18.827Z,19.40
2018-05-11T09:30:47.832Z,19.50
2018-05-11T09:33:16.038Z,19.50
2018-05-11T09:35:44.196Z,19.30
2018-05-11T09:38:12.378Z,19.00
2018-05-11T09:40:41.442Z,19.80
2018-05-11T09:43:09.623Z,19.80
2018-05-11T09:45:37.811Z,20.10
2018-05-11T09:48:05.992Z,20.60
2018-05-11T09:50:34.199Z,20.40
2018-05-11T09:53:03.172Z,19.60
2018-05-11T09:55:31.382Z,19.50
2018-05-11T09:57:59.555Z,20.10
2018-05-11T10:00:27.832Z,20.80
2018-05-11T10:02:56.026Z,20.60
2018-05-11T10:05:24.174Z,20.60
2018-05-11T10:07:52.367Z,20.80
2018-05-11T10:10:21.384Z,20.40
2018-05-11T10:12:49.604Z,20.40
2018-05-11T10:15:17.763Z,20.30
2018-05-11T10:17:45.914Z,20.90
2018-05-11T10:20:14.922Z,21.20
2018-05-11T10:22:43.082Z,21.10
2018-05-11T10:25:11.276Z,21.40
2018-05-11T10:27:39.437Z,21.20
2018-05-11T10:30:08.428Z,20.50
2018-05-11T10:32:36.595Z,20.50
2018-05-11T10:35:04.771Z,20.50
2018-05-11T10:37:32.950Z,20.70
2018-05-11T10:40:01.135Z,20.60
2018-05-11T10:42:29.286Z,20.90
2018-05-11T10:44:57.457Z,21.50
2018-05-11T10:47:25.603Z,21.80
2018-05-11T10:49:54.546Z,21.80
2018-05-11T10:52:22.700Z,21.80
2018-05-11T10:54:50.878Z,21.70
2018-05-11T10:57:19.039Z,21.40
2018-05-11T10:59:48.050Z,22.00
2018-05-11T11:02:16.221Z,22.00
2018-05-11T11:04:44.388Z,22.80
2018-05-11T11:07:12.549Z,23.00
2018-05-11T11:09:41.580Z,21.30
2018-05-11T11:12:09.742Z,21.30
2018-05-11T11:14:37.940Z,22.40
2018-05-11T11:17:06.892Z,22.30
2018-05-11T11:19:36.023Z,22.00
2018-05-11T11:22:04.186Z,22.00
2018-05-11T11:24:32.354Z,22.70
2018-05-11T11:27:00.515Z,22.70
2018-05-11T11:29:29.541Z,23.40
2018-05-11T11:32:03.694Z,23.30
2018-05-11T11:34:31.900Z,22.60
2018-05-11T11:37:00.054Z,22.60
2018-05-11T11:39:29.061Z,21.80
2018-05-11T11:41:57.238Z,21.80
2018-05-11T11:44:25.398Z,22.40
2018-05-11T11:46:53.575Z,22.80
2018-05-11T11:49:22.566Z,23.10
2018-05-11T11:51:50.755Z,23.00
2018-05-11T11:54:18.914Z,23.20
2018-05-11T11:56:47.114Z,22.90
2018-05-11T11:59:16.094Z,22.50
2018-05-11T12:01:44.302Z,22.50
2018-05-11T12:04:12.443Z,21.70
2018-05-11T12:06:40.625Z,22.10
2018-05-11T12:09:08.781Z,22.80
2018-05-11T12:11:36.950Z,23.10
2018-05-11T12:14:05.114Z,23.30
2018-05-11T12:16:34.061Z,23.40
2018-05-11T12:19:03.128Z,23.60
2018-05-11T12:21:31.301Z,23.60
2018-05-11T12:23:59.464Z,23.10
2018-05-11T12:26:27.776Z,23.70
2018-05-11T12:28:56.640Z,23.20
2018-05-11T12:31:24.827Z,23.20
2018-05-11T12:33:53.012Z,23.30
2018-05-11T12:36:21.194Z,23.20
2018-05-11T12:38:50.269Z,22.80
2018-05-11T12:41:18.453Z,22.80
2018-05-11T12:43:46.619Z,22.50
2018-05-11T12:46:14.807Z,22.80
2018-05-11T12:48:43.764Z,22.60
2018-05-11T12:51:11.949Z,22.60
2018-05-11T12:53:40.115Z,23.30
2018-05-11T12:56:08.314Z,23.80
2018-05-11T12:58:37.297Z,23.20
2018-05-11T13:01:05.460Z,23.20
2018-05-11T13:03:33.647Z,22.80
2018-05-11T13:06:01.824Z,23.50
2018-05-11T13:08:30.051Z,23.70
2018-05-11T13:10:58.203Z,24.20
2018-05-11T13:13:26.375Z,24.50
2018-05-11T13:15:54.535Z,24.30
2018-05-11T13:18:23.651Z,23.50
2018-05-11T13:20:51.998Z,23.50
2018-05-11T13:23:20.110Z,23.30
2018-05-11T13:25:49.037Z,23.70
2018-05-11T13:28:18.051Z,23.90
2018-05-11T13:30:46.219Z,23.90
2018-05-11T13:33:14.386Z,24.10
2018-05-11T13:35:42.570Z,24.10
2018-05-11T13:38:10.771Z,24.00
2018-05-11T13:40:38.953Z,24.40
2018-05-11T13:43:07.147Z,24.50
2018-05-11T13:45:35.304Z,24.40
2018-05-11T13:48:03.520Z,24.50
2018-05-11T13:50:31.680Z,24.30
2018-05-11T13:53:00.639Z,23.70
2018-05-11T13:55:28.798Z,23.70
2018-05-11T13:57:57.147Z,24.10
2018-05-11T14:00:25.298Z,23.80
2018-05-11T14:02:54.276Z,23.80
2018-05-11T14:05:22.424Z,23.70
2018-05-11T14:07:50.604Z,23.50
2018-05-11T14:10:18.815Z,22.90
2018-05-11T14:12:48.600Z,23.40
2018-05-11T14:15:16.747Z,23.40
2018-05-11T14:17:44.941Z,23.60
2018-05-11T14:20:13.103Z,23.90
2018-05-11T14:22:41.278Z,23.60
2018-05-11T14:25:09.464Z,23.10
2018-05-11T14:27:37.622Z,22.60
2018-05-11T14:30:05.812Z,23.20
2018-05-11T14:32:33.973Z,23.20
2018-05-11T14:35:02.171Z,22.80
2018-05-11T14:37:30.344Z,22.70
2018-05-11T14:39:58.531Z,22.70
2018-05-11T14:42:26.695Z,23.10
2018-05-11T14:44:54.886Z,23.40
2018-05-11T14:47:23.063Z,23.60
2018-05-11T14:49:51.999Z,24.00
2018-05-11T14:52:20.170Z,23.90
2018-05-11T14:54:48.347Z,23.40
2018-05-11T14:57:16.758Z,22.90
2018-05-11T14:59:44.942Z,22.90
2018-05-11T15:02:13.098Z,23.00
2018-05-11T15:04:41.302Z,23.20
2018-05-11T15:07:09.535Z,23.50
2018-05-11T15:09:38.519Z,23.50
2018-05-11T15:12:06.686Z,23.50
2018-05-11T15:14:34.877Z,23.40
2018-05-11T15:17:04.085Z,23.10
2018-05-11T15:19:32.258Z,23.10
2018-05-11T15:22:00.414Z,23.10
2018-05-11T15:24:28.600Z,23.00
2018-05-11T15:26:56.903Z,23.20
2018-05-11T15:29:25.868Z,23.20
2018-05-11T15:31:54.011Z,23.20
2018-05-11T15:34:22.195Z,23.30
2018-05-11T15:36:50.398Z,23.10
2018-05-11T15:39:18.558Z,23.10
2018-05-11T15:41:46.850Z,23.30
2018-05-11T15:44:15.051Z,23.30
2018-05-11T15:46:43.309Z,23.30
2018-05-11T15:49:11.465Z,23.20
2018-05-11T15:51:39.644Z,23.20
2018-05-11T15:54:07.799Z,23.40
2018-05-11T15:56:36.800Z,22.90
2018-05-11T15:59:04.964Z,22.90
2018-05-11T16:01:33.139Z,22.90
2018-05-11T16:04:01.800Z,22.90
2018-05-11T16:06:30.826Z,22.70
2018-05-11T16:08:58.988Z,22.70
2018-05-11T16:11:27.182Z,22.80
2018-05-11T16:13:55.334Z,22.80
2018-05-11T16:16:24.361Z,22.50
2018-05-11T16:18:52.514Z,22.50
2018-05-11T16:21:20.692Z,22.50
2018-05-11T16:23:48.899Z,22.60
2018-05-11T16:26:17.260Z,22.60
2018-05-11T16:28:45.423Z,22.40
2018-05-11T16:31:13.599Z,22.30
2018-05-11T16:33:41.884Z,22.40
2018-05-11T16:36:10.879Z,22.40
2018-05-11T16:38:39.057Z,22.30
2018-05-11T16:41:07.231Z,22.30
2018-05-11T16:43:35.395Z,22.20
2018-05-11T16:46:04.501Z,22.20
2018-05-11T16:48:33.447Z,22.20
2018-05-11T16:51:01.727Z,22.20
2018-05-11T16:53:29.834Z,22.10
2018-05-11T16:55:58.061Z,22.10
2018-05-11T16:58:26.966Z,22.00
2018-05-11T17:00:55.153Z,21.90
2018-05-11T17:03:23.339Z,21.90
2018-05-11T17:05:51.607Z,21.80
2018-05-11T17:08:19.772Z,21.70
2018-05-11T17:10:47.930Z,21.60
2018-05-11T17:13:16.106Z,21.50
2018-05-11T17:15:45.106Z,21.50
2018-05-11T17:18:13.286Z,21.50
2018-05-11T17:20:41.443Z,21.40
2018-05-11T17:23:09.647Z,21.30
2018-05-11T17:25:38.619Z,21.30
2018-05-11T17:28:06.809Z,21.20
2018-05-11T17:30:34.974Z,21.20
2018-05-11T17:33:03.487Z,21.20
2018-05-11T17:35:33.505Z,21.10
2018-05-11T17:38:01.779Z,21.10
2018-05-11T17:40:30.716Z,21.00
2018-05-11T17:42:58.923Z,20.90
2018-05-11T17:45:27.075Z,21.10
2018-05-11T17:47:55.304Z,21.10
2018-05-11T17:50:23.470Z,20.90
2018-05-11T17:52:51.663Z,20.70
2018-05-11T17:55:19.823Z,20.60
2018-05-11T17:57:48.791Z,20.50
2018-05-11T18:00:16.950Z,20.50
2018-05-11T18:02:45.179Z,20.40
2018-05-11T18:05:14.234Z,20.20
2018-05-11T18:07:42.426Z,20.20
2018-05-11T18:10:10.652Z,20.20
2018-05-11T18:12:38.803Z,20.10
2018-05-11T18:15:07.835Z,19.90
2018-05-11T18:17:36.046Z,19.80
2018-05-11T18:20:04.198Z,19.70
2018-05-11T18:22:32.375Z,19.50
2018-05-11T18:25:01.369Z,19.40
2018-05-11T18:27:29.560Z,19.40
2018-05-11T18:29:57.754Z,19.30
2018-05-11T18:32:26.703Z,19.00
2018-05-11T18:34:55.705Z,18.90
2018-05-11T18:37:24.680Z,18.80
2018-05-11T18:39:52.883Z,18.80
2018-05-11T18:42:21.039Z,18.70
2018-05-11T18:44:50.782Z,18.40
2018-05-11T18:47:19.731Z,18.30
2018-05-11T18:49:47.913Z,18.30
2018-05-11T18:52:16.067Z,18.10
2018-05-11T18:54:45.366Z,18.00
2018-05-11T18:57:13.474Z,17.90
2018-05-11T18:59:41.651Z,17.80
2018-05-11T19:02:09.814Z,17.70
2018-05-11T19:04:38.083Z,17.30
2018-05-11T19:07:06.253Z,17.30
2018-05-11T19:09:34.447Z,17.30
2018-05-11T19:12:02.630Z,17.20
2018-05-11T19:14:30.983Z,16.90
2018-05-11T19:16:59.163Z,16.60
2018-05-11T19:19:27.361Z,16.70
2018-05-11T19:21:55.536Z,16.70
2018-05-11T19:24:23.763Z,16.70
2018-05-11T19:26:51.946Z,16.70
2018-05-11T19:29:20.138Z,16.40
2018-05-11T19:31:48.302Z,16.30
2018-05-11T19:34:16.586Z,16.20
2018-05-11T19:36:44.761Z,16.20
2018-05-11T19:39:12.963Z,16.30
2018-05-11T19:41:47.023Z,16.20
2018-05-11T19:44:15.325Z,16.00
2018-05-11T19:46:43.468Z,16.00
2018-05-11T19:49:11.628Z,16.00
2018-05-11T19:51:39.839Z,15.90
2018-05-11T19:54:08.086Z,15.90
2018-05-11T19:56:37.141Z,15.60
2018-05-11T19:59:05.286Z,15.60
2018-05-11T20:01:33.495Z,15.80
2018-05-11T20:04:01.920Z,15.50
2018-05-11T20:06:30.119Z,15.50
2018-05-11T20:08:58.298Z,15.60
2018-05-11T20:11:26.491Z,15.40
2018-05-11T20:13:54.791Z,15.20
2018-05-11T20:16:22.991Z,15.20
2018-05-11T20:18:51.154Z,15.20
2018-05-11T20:21:20.122Z,15.10
2018-05-11T20:23:49.060Z,15.10
2018-05-11T20:26:17.250Z,15.00
2018-05-11T20:28:45.411Z,14.90
2018-05-11T20:31:13.600Z,15.00
2018-05-11T20:33:41.771Z,15.00
2018-05-11T20:36:09.969Z,15.00
2018-05-11T20:38:38.150Z,15.00
2018-05-11T20:41:06.355Z,15.10
2018-05-11T20:43:35.395Z,15.00
2018-05-11T20:46:03.607Z,15.00
2018-05-11T20:48:32.588Z,14.80
2018-05-11T20:51:00.770Z,14.80
2018-05-11T20:53:29.727Z,14.90
2018-05-11T20:55:57.910Z,14.80
2018-05-11T20:58:26.075Z,14.80
2018-05-11T21:00:54.383Z,14.70
2018-05-11T21:03:23.352Z,14.60
2018-05-11T21:05:51.530Z,14.60
2018-05-11T21:08:19.686Z,14.50
2018-05-11T21:10:47.905Z,14.50
2018-05-11T21:13:16.855Z,14.50
2018-05-11T21:15:45.012Z,14.50
2018-05-11T21:18:13.946Z,14.40
2018-05-11T21:20:42.118Z,14.30
2018-05-11T21:23:11.226Z,14.30
2018-05-11T21:25:39.389Z,14.20
2018-05-11T21:28:07.570Z,14.20
2018-05-11T21:30:35.744Z,14.20
2018-05-11T21:33:04.733Z,14.30
2018-05-11T21:35:32.895Z,14.30
2018-05-11T21:38:01.104Z,14.40
2018-05-11T21:40:29.283Z,14.50
2018-05-11T21:42:58.345Z,14.30
2018-05-11T21:45:26.520Z,14.30
2018-05-11T21:47:54.715Z,14.20
2018-05-11T21:50:22.870Z,14.10
2018-05-11T21:52:51.066Z,14.00
2018-05-11T21:55:19.222Z,14.10
2018-05-11T21:57:47.404Z,14.10
2018-05-11T22:00:15.588Z,14.00
2018-05-11T22:02:44.663Z,13.80
2018-05-11T22:05:12.834Z,13.70
2018-05-11T22:07:41.011Z,13.80
2018-05-11T22:10:09.187Z,13.80
2018-05-11T22:12:38.184Z,13.80
2018-05-11T22:15:06.361Z,13.70
2018-05-11T22:17:34.639Z,13.70
2018-05-11T22:20:02.808Z,13.70
2018-05-11T22:22:31.080Z,13.50
2018-05-11T22:24:59.230Z,13.50
2018-05-11T22:27:27.406Z,13.50
2018-05-11T22:29:55.568Z,13.20
2018-05-11T22:32:24.587Z,13.20
2018-05-11T22:34:52.741Z,13.20
2018-05-11T22:37:20.951Z,13.10
2018-05-11T22:39:50.635Z,13.10
2018-05-11T22:42:19.726Z,13.20
2018-05-11T22:44:47.929Z,13.20
2018-05-11T22:47:16.107Z,13.20
2018-05-11T22:49:44.278Z,13.10
2018-05-11T22:52:12.448Z,12.90
2018-05-11T22:54:40.627Z,13.00
2018-05-11T22:57:08.779Z,13.10
2018-05-11T22:59:36.954Z,13.00
2018-05-11T23:02:05.949Z,12.90
2018-05-11T23:04:34.134Z,12.90
2018-05-11T23:07:02.315Z,13.00
2018-05-11T23:09:30.504Z,13.00
2018-05-11T23:11:58.786Z,12.80
2018-05-11T23:14:27.226Z,12.70
2018-05-11T23:16:55.396Z,12.60
2018-05-11T23:19:23.583Z,12.60
2018-05-11T23:21:51.778Z,12.60
2018-05-11T23:24:19.974Z,12.70
2018-05-11T23:26:48.915Z,12.70
2018-05-11T23:29:17.091Z,12.70
2018-05-11T23:31:45.307Z,12.60
2018-05-11T23:34:13.483Z,12.50
2018-05-11T23:36:42.431Z,12.60
2018-05-11T23:39:10.611Z,12.60
2018-05-11T23:41:39.593Z,12.50
2018-05-11T23:44:07.776Z,12.50
2018-05-11T23:46:35.943Z,12.50
2018-05-11T23:49:04.123Z,12.50
2018-05-11T23:51:33.103Z,12.10
2018-05-11T23:54:01.308Z,12.10
2018-05-11T23:56:29.459Z,12.20
2018-05-11T23:58:57.650Z,12.20
